16°C Temp
13°C Dewpoint
83% Humidity
Temperature
5 KM/H
3 MPH
3 KTS
360°
Due North

Wind Speed
Partly Cloudy
Conditions
Pressure 1018.62 (hPa) - 30.08 (in)
Visibility 10.0 (mi) - 16.1 (km)

Current Conditions
KSJC
Location 9(km)
Metar :KSJC 281353Z 36003KT 10SM FEW012 FEW019 16/13 A3008 RMK AO2 SLP184 T01560128 $
Tue 28th June 14:53 pm

Airport
  Metar Aviation API Data Provided by https://www.checkwx.com/ PHP scripts by weather34.com ©2022